Time;durP1;ratioP1;P1;durP2;ratioP2;P2;SDS_P1;SDS_P2;PMS_P1;PMS_P2;Temp;Humidity;BMP_temperature;BMP_pressure;BME280_temperature;BME280_humidity;BME280_pressure;Samples;Min_cycle;Max_cycle;Signal;HPM_P1;HPM_P2
2021/01/07 00:01:24;;;;;;;29.85;18.30;;;2.60;99.90;;;;;;5006110;28;20224;-77
2021/01/07 00:03:50;;;;;;;28.45;17.63;;;2.60;99.90;;;;;;5002409;28;20205;-78
2021/01/07 00:06:17;;;;;;;27.52;17.02;;;2.60;99.90;;;;;;5001957;28;20294;-79
2021/01/07 00:08:43;;;;;;;34.58;18.08;;;2.50;99.90;;;;;;5001448;28;20200;-77
2021/01/07 00:11:11;;;;;;;32.45;19.00;;;2.60;99.90;;;;;;5004209;28;20664;-79
2021/01/07 00:13:38;;;;;;;34.20;18.05;;;2.60;99.90;;;;;;5005517;28;20208;-77
2021/01/07 00:16:06;;;;;;;34.53;18.85;;;2.60;99.90;;;;;;5001479;28;20240;-78
2021/01/07 00:18:33;;;;;;;35.15;18.92;;;2.60;99.90;;;;;;5005590;28;20239;-78
2021/01/07 00:20:59;;;;;;;38.08;18.98;;;2.50;99.90;;;;;;5007111;28;20208;-78
2021/01/07 00:23:26;;;;;;;33.15;18.80;;;2.50;99.90;;;;;;5003111;28;20267;-79
2021/01/07 00:25:54;;;;;;;37.65;19.23;;;2.50;99.90;;;;;;5003622;28;20228;-78
2021/01/07 00:28:22;;;;;;;28.85;15.40;;;2.50;99.90;;;;;;5002236;28;20212;-78
2021/01/07 00:30:48;;;;;;;31.98;17.60;;;2.50;99.90;;;;;;5003926;28;20594;-79
2021/01/07 00:33:18;;;;;;;46.13;20.77;;;2.40;99.90;;;;;;5004292;28;20205;-79
2021/01/07 00:35:44;;;;;;;40.25;20.50;;;2.40;99.90;;;;;;5008862;28;20220;-79
2021/01/07 00:38:11;;;;;;;37.63;18.45;;;2.40;99.90;;;;;;5003516;28;20208;-78
2021/01/07 00:40:37;;;;;;;36.72;20.00;;;2.40;99.90;;;;;;5008425;28;20239;-79
2021/01/07 00:43:05;;;;;;;38.22;20.13;;;2.50;99.90;;;;;;5018191;28;20185;-77
2021/01/07 00:45:32;;;;;;;41.30;22.05;;;2.50;99.90;;;;;;5018337;28;20212;-77
2021/01/07 00:47:59;;;;;;;36.95;20.30;;;2.50;99.90;;;;;;5017648;28;20197;-76
2021/01/07 00:50:26;;;;;;;41.38;21.10;;;2.50;99.90;;;;;;5018695;28;20213;-77
2021/01/07 00:52:53;;;;;;;42.50;21.65;;;2.50;99.90;;;;;;5018786;28;20200;-76
2021/01/07 00:55:20;;;;;;;42.60;20.88;;;2.50;99.90;;;;;;5018901;28;20196;-76
2021/01/07 00:57:46;;;;;;;45.53;21.98;;;2.60;99.90;;;;;;5017810;28;20209;-77
2021/01/07 01:00:15;;;;;;;48.40;21.20;;;2.60;99.90;;;;;;5017097;28;20233;-77
2021/01/07 01:02:42;;;;;;;40.92;20.48;;;2.70;99.90;;;;;;5013017;28;20205;-75
2021/01/07 01:05:10;;;;;;;37.33;19.15;;;2.60;99.90;;;;;;5012582;28;20672;-76
2021/01/07 01:07:37;;;;;;;45.70;22.05;;;2.70;99.90;;;;;;5008344;28;20692;-76
2021/01/07 01:10:07;;;;;;;43.10;22.08;;;2.60;99.90;;;;;;5009539;28;20223;-76
2021/01/07 01:12:33;;;;;;;43.42;22.27;;;2.50;99.90;;;;;;4989933;28;20296;-76
2021/01/07 01:15:00;;;;;;;45.63;23.20;;;2.50;99.90;;;;;;4989977;28;20218;-77
2021/01/07 01:17:26;;;;;;;49.70;22.67;;;2.50;99.90;;;;;;5007941;28;20248;-76
2021/01/07 01:19:53;;;;;;;40.65;21.38;;;2.60;99.90;;;;;;5009006;28;20223;-77
2021/01/07 01:22:19;;;;;;;44.70;21.08;;;2.50;99.90;;;;;;5007999;28;20255;-77
2021/01/07 01:24:46;;;;;;;39.38;20.35;;;2.50;99.90;;;;;;5009045;28;20208;-77
2021/01/07 01:27:13;;;;;;;45.53;21.48;;;2.50;99.90;;;;;;5008191;28;20227;-76
2021/01/07 01:29:39;;;;;;;47.65;24.02;;;2.50;99.90;;;;;;5008425;28;20205;-77
2021/01/07 01:32:06;;;;;;;42.65;20.95;;;2.50;99.90;;;;;;5005209;28;20236;-78
2021/01/07 01:34:32;;;;;;;39.03;19.25;;;2.60;99.90;;;;;;4997418;28;20204;-76
2021/01/07 01:37:05;;;;;;;45.53;21.48;;;2.50;99.90;;;;;;4997210;28;20263;-76
2021/01/07 01:39:32;;;;;;;42.63;20.13;;;2.50;99.90;;;;;;4997756;28;20308;-77
2021/01/07 01:41:59;;;;;;;43.55;20.50;;;2.60;99.90;;;;;;4997934;28;20208;-78
2021/01/07 01:44:28;;;;;;;51.08;23.40;;;2.60;99.90;;;;;;5001594;28;20575;-77
2021/01/07 01:46:55;;;;;;;38.85;20.27;;;2.50;99.60;;;;;;5009983;28;20224;-77
2021/01/07 01:49:23;;;;;;;40.95;21.33;;;2.50;99.50;;;;;;5014864;28;20205;-77
2021/01/07 01:51:50;;;;;;;54.53;23.33;;;2.50;99.60;;;;;;5016036;28;20235;-76
2021/01/07 01:54:17;;;;;;;43.95;22.58;;;2.60;99.70;;;;;;5011157;28;20201;-76
2021/01/07 01:56:46;;;;;;;40.95;20.75;;;2.50;99.40;;;;;;5000271;28;20243;-78
2021/01/07 01:59:14;;;;;;;38.60;19.17;;;2.50;99.40;;;;;;5004351;28;20209;-78
2021/01/07 02:01:41;;;;;;;41.88;20.17;;;2.60;99.40;;;;;;5006580;28;20220;-76
2021/01/07 02:04:07;;;;;;;40.80;20.05;;;2.60;99.40;;;;;;4991127;28;20551;-79
2021/01/07 02:06:39;;;;;;;37.70;20.95;;;2.60;99.40;;;;;;4983885;28;20256;-77
2021/01/07 02:09:07;;;;;;;40.00;19.13;;;2.60;99.40;;;;;;5012683;28;20188;-77
2021/01/07 02:11:34;;;;;;;41.88;20.70;;;2.70;99.40;;;;;;5009253;28;20267;-76
2021/01/07 02:14:01;;;;;;;41.10;20.50;;;2.60;99.30;;;;;;5003117;28;20219;-78
2021/01/07 02:16:29;;;;;;;39.30;19.58;;;2.60;99.40;;;;;;5004842;28;20264;-78
2021/01/07 02:18:56;;;;;;;40.42;22.33;;;2.60;99.30;;;;;;5002171;28;20207;-78
2021/01/07 02:21:24;;;;;;;35.95;19.98;;;2.60;98.90;;;;;;4997770;28;20208;-77
2021/01/07 02:23:52;;;;;;;44.72;21.67;;;2.60;99.30;;;;;;4999802;28;20231;-78
2021/01/07 02:26:19;;;;;;;45.08;22.17;;;2.70;99.20;;;;;;4999570;28;20286;-76
2021/01/07 02:28:46;;;;;;;44.47;22.17;;;2.60;98.70;;;;;;5001913;28;20204;-77
2021/01/07 02:31:13;;;;;;;42.65;20.95;;;2.60;98.60;;;;;;5008939;28;20232;-77
2021/01/07 02:33:39;;;;;;;42.05;21.08;;;2.60;98.50;;;;;;5015599;28;20256;-81
2021/01/07 02:36:06;;;;;;;44.60;21.27;;;2.60;98.60;;;;;;5011014;28;20240;-77
2021/01/07 02:38:33;;;;;;;41.35;22.60;;;2.60;98.10;;;;;;4999990;28;20294;-76
2021/01/07 02:41:00;;;;;;;45.47;21.88;;;2.50;98.30;;;;;;4996911;28;20205;-76
2021/01/07 02:43:26;;;;;;;40.72;21.15;;;2.50;98.40;;;;;;5016485;28;20250;-82
2021/01/07 02:45:53;;;;;;;39.28;20.80;;;2.50;98.60;;;;;;5016907;28;20220;-82
2021/01/07 02:48:19;;;;;;;44.38;20.92;;;2.60;98.60;;;;;;5016987;28;20457;-82
2021/01/07 02:50:46;;;;;;;44.95;21.80;;;2.60;98.50;;;;;;5002312;28;20209;-77
2021/01/07 02:53:12;;;;;;;42.58;21.73;;;2.60;98.60;;;;;;4993688;28;20254;-78
2021/01/07 02:55:39;;;;;;;38.30;20.98;;;2.60;98.60;;;;;;4993780;28;20212;-76
2021/01/07 02:58:06;;;;;;;36.97;19.58;;;2.50;98.40;;;;;;4992511;28;20629;-77
2021/01/07 03:00:32;;;;;;;42.05;21.27;;;2.50;98.50;;;;;;4993316;28;20968;-77
2021/01/07 03:02:59;;;;;;;41.30;21.48;;;2.60;98.70;;;;;;4993309;28;20212;-76
2021/01/07 03:05:25;;;;;;;35.33;19.38;;;2.60;98.40;;;;;;4993239;28;20205;-76
2021/01/07 03:07:51;;;;;;;39.35;20.70;;;2.60;98.50;;;;;;4992898;28;20228;-77
2021/01/07 03:10:18;;;;;;;39.95;21.70;;;2.60;98.40;;;;;;4993490;28;20208;-75
2021/01/07 03:12:45;;;;;;;43.83;22.00;;;2.70;98.30;;;;;;4994147;28;20262;-76
2021/01/07 03:15:12;;;;;;;47.42;23.65;;;2.70;98.10;;;;;;4993377;28;20212;-76
2021/01/07 03:17:38;;;;;;;40.08;21.50;;;2.60;97.70;;;;;;4992262;28;20290;-77
2021/01/07 03:20:12;;;;;;;40.55;20.75;;;2.60;97.70;;;;;;4992040;28;20371;-77
2021/01/07 03:22:39;;;;;;;45.70;22.38;;;2.50;97.50;;;;;;4992446;28;20204;-75
2021/01/07 03:25:07;;;;;;;44.13;20.85;;;2.50;97.50;;;;;;4992682;28;20339;-76
2021/01/07 03:27:33;;;;;;;43.10;22.58;;;2.50;97.60;;;;;;4992200;28;20225;-76
2021/01/07 03:30:01;;;;;;;47.38;21.95;;;2.50;97.50;;;;;;4992727;28;20664;-76
2021/01/07 03:32:27;;;;;;;51.33;22.05;;;2.50;97.70;;;;;;4993310;28;20223;-78
2021/01/07 03:34:54;;;;;;;41.00;22.33;;;2.50;97.70;;;;;;4993136;28;20299;-76
2021/01/07 03:37:20;;;;;;;42.97;23.20;;;2.50;97.50;;;;;;4993127;28;20229;-77
2021/01/07 03:39:46;;;;;;;47.85;24.75;;;2.50;97.50;;;;;;4992717;28;20599;-76
2021/01/07 03:42:13;;;;;;;45.03;23.02;;;2.40;97.40;;;;;;4992954;28;20611;-76
2021/01/07 03:44:39;;;;;;;45.47;22.70;;;2.50;97.70;;;;;;4992467;28;20211;-77
2021/01/07 03:47:06;;;;;;;45.85;24.02;;;2.40;97.70;;;;;;4993269;28;20240;-76
2021/01/07 03:49:33;;;;;;;47.88;21.98;;;2.50;97.70;;;;;;4992612;28;20208;-76
2021/01/07 03:51:59;;;;;;;41.78;22.77;;;2.50;97.70;;;;;;4992351;28;20217;-76
2021/01/07 03:54:25;;;;;;;48.85;23.98;;;2.50;97.40;;;;;;4994170;28;20228;-75
2021/01/07 03:56:52;;;;;;;49.42;22.88;;;2.50;97.10;;;;;;4993903;28;20704;-77
2021/01/07 03:59:18;;;;;;;43.20;22.40;;;2.50;96.90;;;;;;4995107;28;20291;-76
2021/01/07 04:01:44;;;;;;;43.10;23.20;;;2.50;96.80;;;;;;4994829;28;20206;-76
2021/01/07 04:04:12;;;;;;;37.50;22.15;;;2.50;96.60;;;;;;4993458;28;20224;-76
2021/01/07 04:06:38;;;;;;;47.80;22.23;;;2.50;96.80;;;;;;4993641;28;20331;-77
2021/01/07 04:09:05;;;;;;;44.50;21.38;;;2.50;96.80;;;;;;4993011;28;20299;-76
2021/01/07 04:11:32;;;;;;;43.67;22.08;;;2.50;96.90;;;;;;4993348;28;20587;-77
2021/01/07 04:13:58;;;;;;;43.95;22.30;;;2.50;96.80;;;;;;4991990;28;20680;-75
2021/01/07 04:16:25;;;;;;;45.63;21.55;;;2.50;96.60;;;;;;4992981;28;20259;-77
2021/01/07 04:18:51;;;;;;;48.17;24.00;;;2.50;96.70;;;;;;5002558;28;20201;-76
2021/01/07 04:21:19;;;;;;;46.90;23.88;;;2.60;97.10;;;;;;5011313;28;20255;-77
2021/01/07 04:23:46;;;;;;;40.63;21.60;;;2.60;96.90;;;;;;5011371;28;20222;-76
2021/01/07 04:26:12;;;;;;;46.35;22.38;;;2.60;97.10;;;;;;5003999;28;20303;-76
2021/01/07 04:28:38;;;;;;;48.90;23.63;;;2.50;96.80;;;;;;5004509;28;20268;-77
2021/01/07 04:31:05;;;;;;;44.70;23.52;;;2.50;96.80;;;;;;5006461;28;20229;-77
2021/01/07 04:33:31;;;;;;;48.05;22.10;;;2.50;96.90;;;;;;5006058;28;20243;-77
2021/01/07 04:35:57;;;;;;;47.28;22.98;;;2.50;96.60;;;;;;5001294;28;20263;-77
2021/01/07 04:38:25;;;;;;;45.25;23.73;;;2.50;96.80;;;;;;5006153;28;20761;-77
2021/01/07 04:40:51;;;;;;;40.13;22.20;;;2.50;97.00;;;;;;5008053;28;20209;-76
2021/01/07 04:43:17;;;;;;;41.08;20.95;;;2.50;97.10;;;;;;5007326;28;20205;-76
2021/01/07 04:45:44;;;;;;;46.65;24.13;;;2.60;97.00;;;;;;5007420;28;20217;-77
2021/01/07 04:48:10;;;;;;;48.70;23.85;;;2.50;97.00;;;;;;5005925;28;20219;-77
2021/01/07 04:50:36;;;;;;;43.35;21.05;;;2.50;97.00;;;;;;5006994;28;20311;-78
2021/01/07 04:53:03;;;;;;;49.03;23.70;;;2.50;96.90;;;;;;5001259;28;20236;-78
2021/01/07 04:55:30;;;;;;;44.50;23.20;;;2.50;97.10;;;;;;5002596;28;20212;-77
2021/01/07 04:57:56;;;;;;;41.75;22.67;;;2.60;97.00;;;;;;5003565;28;20218;-77
2021/01/07 05:00:23;;;;;;;42.08;22.20;;;2.60;96.90;;;;;;5007937;28;20212;-77
2021/01/07 05:02:50;;;;;;;47.03;23.42;;;2.60;96.70;;;;;;5010890;28;20260;-77
2021/01/07 05:05:16;;;;;;;41.03;21.77;;;2.60;96.50;;;;;;5007945;28;20279;-77
2021/01/07 05:07:42;;;;;;;45.97;21.05;;;2.60;96.50;;;;;;5000518;28;20224;-76
2021/01/07 05:10:10;;;;;;;39.67;22.08;;;2.60;96.50;;;;;;5006677;28;20208;-78
2021/01/07 05:12:38;;;;;;;42.78;21.27;;;2.60;96.30;;;;;;5007433;28;20593;-76
2021/01/07 05:15:07;;;;;;;39.95;20.88;;;2.50;96.40;;;;;;5010281;28;20246;-77
2021/01/07 05:17:35;;;;;;;45.20;21.55;;;2.50;96.50;;;;;;5013831;28;20254;-77
2021/01/07 05:20:01;;;;;;;41.60;21.13;;;2.50;96.50;;;;;;5006555;28;20302;-77
2021/01/07 05:22:35;;;;;;;37.13;19.50;;;2.50;96.70;;;;;;5007514;28;20216;-77
2021/01/07 05:25:02;;;;;;;40.92;21.85;;;2.50;96.80;;;;;;4999907;28;20234;-78
2021/01/07 05:27:28;;;;;;;39.67;21.33;;;2.60;96.80;;;;;;4998262;28;20225;-78
2021/01/07 05:30:01;;;;;;;38.70;21.73;;;2.60;96.90;;;;;;4998908;28;20216;-78
2021/01/07 05:32:35;;;;;;;35.65;20.63;;;2.60;96.70;;;;;;4998726;28;20251;-77
2021/01/07 05:35:01;;;;;;;35.63;20.27;;;2.60;96.80;;;;;;4999487;28;20208;-78
2021/01/07 05:37:32;;;;;;;42.85;20.13;;;2.60;96.80;;;;;;4998091;28;20225;-76
2021/01/07 05:39:58;;;;;;;43.65;20.67;;;2.60;96.70;;;;;;4997805;28;20308;-77
2021/01/07 05:42:26;;;;;;;39.72;22.02;;;2.60;96.70;;;;;;5003581;28;20288;-77
2021/01/07 05:44:54;;;;;;;42.50;20.23;;;2.60;96.80;;;;;;5004797;28;20212;-78
2021/01/07 05:47:27;;;;;;;45.40;21.58;;;2.60;96.90;;;;;;4999546;28;20230;-78
2021/01/07 05:49:55;;;;;;;41.17;20.65;;;2.60;96.80;;;;;;4998549;28;20224;-77
2021/01/07 05:52:22;;;;;;;43.65;20.77;;;2.60;97.00;;;;;;4997828;28;20224;-76
2021/01/07 05:54:49;;;;;;;41.75;20.00;;;2.50;96.80;;;;;;5011967;28;20208;-76
2021/01/07 05:57:19;;;;;;;42.70;20.15;;;2.50;97.00;;;;;;5012906;28;20233;-76
2021/01/07 05:59:48;;;;;;;42.55;21.35;;;2.50;97.10;;;;;;5013287;28;20212;-76
2021/01/07 06:02:16;;;;;;;35.28;19.73;;;2.50;97.30;;;;;;5013470;28;20260;-77
2021/01/07 06:04:47;;;;;;;43.60;19.52;;;2.60;97.40;;;;;;5014035;28;20273;-77
2021/01/07 06:07:15;;;;;;;44.03;21.45;;;2.50;97.20;;;;;;5013662;28;20818;-77
2021/01/07 06:09:43;;;;;;;39.72;21.23;;;2.50;97.10;;;;;;5014018;28;20401;-76
2021/01/07 06:12:12;;;;;;;43.47;20.00;;;2.50;97.30;;;;;;5012828;28;20413;-77
2021/01/07 06:14:41;;;;;;;39.47;20.98;;;2.50;97.10;;;;;;5014725;28;20209;-77
2021/01/07 06:17:07;;;;;;;43.03;23.25;;;2.50;97.20;;;;;;5014005;28;20235;-77
2021/01/07 06:19:36;;;;;;;41.42;21.10;;;2.50;97.30;;;;;;5008041;28;20384;-76
2021/01/07 06:22:09;;;;;;;40.78;22.00;;;2.60;97.30;;;;;;5005777;28;20295;-76
2021/01/07 06:24:37;;;;;;;48.95;21.50;;;2.50;97.20;;;;;;5000256;28;20358;-76
2021/01/07 06:27:25;;;;;;;44.75;21.25;;;2.50;97.30;;;;;;5000401;28;20232;-79
2021/01/07 06:29:54;;;;;;;45.40;20.58;;;2.50;97.20;;;;;;5002645;28;20232;-78
2021/01/07 06:32:22;;;;;;;41.80;19.63;;;2.50;97.40;;;;;;4997070;28;20220;-76
2021/01/07 06:34:50;;;;;;;41.30;21.88;;;2.60;97.40;;;;;;5001580;28;20300;-76
2021/01/07 06:37:31;;;;;;;38.30;20.23;;;2.60;97.40;;;;;;5004960;28;20233;-77
2021/01/07 06:40:02;;;;;;;42.05;21.40;;;2.60;97.50;;;;;;4981291;28;20219;-77
2021/01/07 06:42:29;;;;;;;47.03;21.77;;;2.60;97.20;;;;;;4994698;28;20236;-77
2021/01/07 06:44:57;;;;;;;45.25;20.73;;;2.50;97.00;;;;;;4997501;28;20296;-77
2021/01/07 06:47:24;;;;;;;45.40;22.20;;;2.50;97.20;;;;;;4995318;28;20572;-77
2021/01/07 06:49:51;;;;;;;42.20;21.60;;;2.50;97.50;;;;;;4997510;28;20208;-77
2021/01/07 06:52:21;;;;;;;42.08;21.65;;;2.60;97.50;;;;;;5006865;28;20315;-77
2021/01/07 06:54:49;;;;;;;41.88;21.92;;;2.60;97.50;;;;;;5003193;28;20348;-77
2021/01/07 06:57:16;;;;;;;43.10;21.55;;;2.70;97.50;;;;;;4998291;28;20221;-77
2021/01/07 06:59:57;;;;;;;43.55;22.08;;;2.60;97.00;;;;;;4997425;28;20301;-77
2021/01/07 07:02:24;;;;;;;40.90;20.73;;;2.60;97.10;;;;;;4996533;28;20291;-77
2021/01/07 07:04:59;;;;;;;43.50;20.73;;;2.60;97.00;;;;;;4997145;28;20211;-77
2021/01/07 07:08:05;;;;;;;41.83;21.10;;;2.60;97.30;;;;;;4996277;28;20307;-78
2021/01/07 07:11:07;;;;;;;41.72;22.65;;;2.60;97.00;;;;;;4996822;28;20634;-78
2021/01/07 07:13:40;;;;;;;38.42;20.40;;;2.50;96.90;;;;;;4998743;28;20354;-77
2021/01/07 07:16:08;;;;;;;44.10;21.95;;;2.60;96.90;;;;;;4999541;28;20726;-76
2021/01/07 07:18:36;;;;;;;40.08;19.98;;;2.60;97.00;;;;;;4999671;28;20335;-78
2021/01/07 07:21:17;;;;;;;42.13;21.42;;;2.60;96.90;;;;;;4998006;28;20306;-78
2021/01/07 07:23:45;;;;;;;45.70;20.85;;;2.60;96.90;;;;;;4999197;28;20212;-77
2021/01/07 07:26:28;;;;;;;43.47;20.65;;;2.50;96.90;;;;;;4998805;28;20464;-78
2021/01/07 07:28:57;;;;;;;45.03;20.40;;;2.50;96.90;;;;;;4998626;28;20291;-77
2021/01/07 07:31:36;;;;;;;40.53;20.60;;;2.50;97.10;;;;;;4997411;28;20243;-79
2021/01/07 07:34:02;;;;;;;47.15;21.77;;;2.60;97.40;;;;;;5007864;28;20251;-77
2021/01/07 07:36:30;;;;;;;45.25;21.45;;;2.60;97.30;;;;;;5014966;28;20276;-76
2021/01/07 07:38:57;;;;;;;36.97;20.15;;;2.60;97.20;;;;;;5010694;28;20248;-77
2021/01/07 07:41:28;;;;;;;38.63;19.65;;;2.60;97.10;;;;;;4999621;28;20300;-77
2021/01/07 07:43:56;;;;;;;44.92;19.70;;;2.70;97.10;;;;;;5008531;28;20220;-77
2021/01/07 07:46:26;;;;;;;35.95;19.65;;;2.70;96.80;;;;;;5015259;28;20243;-77
2021/01/07 07:49:00;;;;;;;39.65;19.17;;;2.70;96.70;;;;;;5015143;28;20253;-74
2021/01/07 07:51:26;;;;;;;38.85;19.63;;;2.70;96.20;;;;;;4985725;28;20233;-76
2021/01/07 07:54:03;;;;;;;38.10;19.42;;;2.70;96.10;;;;;;4998249;28;20216;-74
2021/01/07 07:56:30;;;;;;;40.72;21.35;;;2.70;96.30;;;;;;5015395;28;20255;-75
2021/01/07 07:59:01;;;;;;;33.90;19.38;;;2.80;96.10;;;;;;5019027;28;20223;-75
2021/01/07 08:01:41;;;;;;;42.08;19.90;;;2.80;96.00;;;;;;5016190;28;20857;-76
2021/01/07 08:04:15;;;;;;;38.20;19.90;;;2.70;95.80;;;;;;5018985;28;20192;-74
2021/01/07 08:06:42;;;;;;;38.45;18.75;;;2.80;95.80;;;;;;5018399;28;20212;-75
2021/01/07 08:09:10;;;;;;;37.70;20.05;;;2.80;95.40;;;;;;5019006;28;20234;-75
2021/01/07 08:11:49;;;;;;;37.00;19.10;;;2.80;95.50;;;;;;5018724;28;20208;-75
2021/01/07 08:14:20;;;;;;;42.22;21.17;;;2.80;94.70;;;;;;5018811;28;20223;-76
2021/01/07 08:16:47;;;;;;;39.00;19.50;;;2.70;94.90;;;;;;5011828;28;20296;-76
2021/01/07 08:19:18;;;;;;;37.80;18.02;;;2.70;95.10;;;;;;5011491;28;20212;-76
2021/01/07 08:21:49;;;;;;;38.75;18.95;;;2.80;94.90;;;;;;5012821;28;20208;-77
2021/01/07 08:24:18;;;;;;;35.05;19.55;;;2.80;94.70;;;;;;5012308;28;20213;-77
2021/01/07 08:27:05;;;;;;;40.20;20.40;;;2.80;94.40;;;;;;5012878;28;20249;-77
2021/01/07 08:29:36;;;;;;;40.10;21.90;;;2.80;94.30;;;;;;4997957;28;20256;-77
2021/01/07 08:32:05;;;;;;;31.40;19.70;;;2.80;94.30;;;;;;4998049;28;20232;-76
2021/01/07 08:34:33;;;;;;;36.78;18.50;;;2.80;94.20;;;;;;5006693;28;20252;-76
2021/01/07 08:37:10;;;;;;;38.22;19.50;;;2.80;94.10;;;;;;5008106;28;20225;-77
2021/01/07 08:39:38;;;;;;;35.17;19.00;;;2.80;94.00;;;;;;5005357;28;20279;-77
2021/01/07 08:42:06;;;;;;;33.45;18.15;;;2.80;93.70;;;;;;5000016;28;20212;-76
2021/01/07 08:44:34;;;;;;;31.95;17.70;;;2.80;93.50;;;;;;4997899;28;20201;-77
2021/01/07 08:47:01;;;;;;;34.17;18.27;;;2.90;93.40;;;;;;5005341;28;20259;-76
2021/01/07 08:49:28;;;;;;;34.40;18.52;;;2.90;93.10;;;;;;5005590;28;20205;-77
2021/01/07 08:51:59;;;;;;;34.60;19.05;;;2.90;93.30;;;;;;5001559;28;20224;-76
2021/01/07 08:54:25;;;;;;;35.78;19.05;;;3.00;92.70;;;;;;5002546;28;20313;-76
2021/01/07 08:56:53;;;;;;;38.00;19.02;;;3.10;92.70;;;;;;5002515;28;20237;-77
2021/01/07 08:59:30;;;;;;;33.08;18.38;;;3.00;92.60;;;;;;5002642;28;20197;-77
2021/01/07 09:01:58;;;;;;;33.20;18.15;;;3.10;92.40;;;;;;5004471;28;20206;-76
2021/01/07 09:04:30;;;;;;;32.58;18.20;;;3.10;92.30;;;;;;5002647;28;20201;-76
2021/01/07 09:06:58;;;;;;;30.20;18.60;;;3.10;91.50;;;;;;5000389;28;20260;-78
2021/01/07 09:09:25;;;;;;;33.85;19.45;;;3.00;91.40;;;;;;5007002;28;20519;-76
2021/01/07 09:12:07;;;;;;;40.13;18.88;;;3.10;91.40;;;;;;5006181;28;20270;-76
2021/01/07 09:14:44;;;;;;;32.92;18.95;;;3.20;91.00;;;;;;5009234;28;20220;-76
2021/01/07 09:17:10;;;;;;;37.05;19.00;;;3.10;90.60;;;;;;5005431;28;20238;-77
2021/01/07 09:19:37;;;;;;;32.65;18.98;;;3.10;90.30;;;;;;5003141;28;20217;-77
2021/01/07 09:22:04;;;;;;;30.30;18.13;;;3.10;90.20;;;;;;5005776;28;20303;-75
2021/01/07 09:24:35;;;;;;;35.08;19.08;;;3.00;90.00;;;;;;5005604;28;20220;-77
2021/01/07 09:27:12;;;;;;;34.88;18.02;;;3.00;90.10;;;;;;4986926;28;20256;-77
2021/01/07 09:29:39;;;;;;;33.53;18.35;;;3.00;90.70;;;;;;5001811;28;20217;-77
2021/01/07 09:32:08;;;;;;;35.47;18.35;;;3.20;90.80;;;;;;5002195;28;20224;-76
2021/01/07 09:34:35;;;;;;;33.90;17.30;;;3.20;90.30;;;;;;5003280;28;20189;-76
2021/01/07 09:37:06;;;;;;;32.20;18.50;;;3.20;89.80;;;;;;5017840;28;20218;-76
2021/01/07 09:39:33;;;;;;;37.17;19.42;;;3.20;89.60;;;;;;5018876;28;20219;-76
2021/01/07 09:41:59;;;;;;;33.15;18.67;;;3.30;89.20;;;;;;5017601;28;20231;-76
2021/01/07 09:44:26;;;;;;;33.72;18.95;;;3.30;88.20;;;;;;5017970;28;20196;-76
2021/01/07 09:46:54;;;;;;;35.53;18.30;;;3.40;88.30;;;;;;5016747;28;20263;-77
2021/01/07 09:49:22;;;;;;;36.67;18.27;;;3.40;88.30;;;;;;5016769;28;20204;-76
2021/01/07 09:51:48;;;;;;;35.72;18.52;;;3.40;87.10;;;;;;5016494;28;20252;-77
2021/01/07 09:54:18;;;;;;;32.85;19.33;;;3.50;86.60;;;;;;5015990;28;20212;-77
2021/01/07 09:56:45;;;;;;;33.88;19.15;;;3.50;87.00;;;;;;5015364;28;20291;-76
2021/01/07 09:59:12;;;;;;;39.15;20.10;;;3.50;87.10;;;;;;5014433;28;20388;-76
2021/01/07 10:01:38;;;;;;;36.30;18.73;;;3.60;86.00;;;;;;5016956;28;20209;-77
2021/01/07 10:04:05;;;;;;;35.67;19.23;;;3.60;85.50;;;;;;5016320;28;20240;-79
2021/01/07 10:06:32;;;;;;;36.47;18.90;;;3.60;84.90;;;;;;5016411;28;20394;-75
2021/01/07 10:09:00;;;;;;;31.92;18.10;;;3.60;84.50;;;;;;5016772;28;20212;-77
2021/01/07 10:11:26;;;;;;;38.75;19.08;;;3.50;84.30;;;;;;5016486;28;20185;-78
2021/01/07 10:13:53;;;;;;;40.40;19.80;;;3.70;85.50;;;;;;5016266;28;20207;-79
2021/01/07 10:16:19;;;;;;;36.22;18.48;;;3.70;84.40;;;;;;5035968;23;20909;-80
2021/01/07 10:18:45;;;;;;;34.42;18.63;;;3.60;83.20;;;;;;5017034;28;20211;-80
2021/01/07 10:21:16;;;;;;;32.97;16.65;;;3.60;82.20;;;;;;5017802;28;20201;-80
2021/01/07 10:23:45;;;;;;;34.50;18.15;;;3.50;82.80;;;;;;5016083;28;20589;-80
2021/01/07 10:26:11;;;;;;;29.40;16.95;;;3.60;83.40;;;;;;5015300;28;20204;-79
2021/01/07 10:28:38;;;;;;;30.52;16.98;;;3.70;82.60;;;;;;5014741;28;20189;-79
2021/01/07 10:31:05;;;;;;;34.40;18.08;;;3.70;80.30;;;;;;5009179;28;20228;-78
2021/01/07 10:33:32;;;;;;;32.47;17.88;;;3.60;80.20;;;;;;4998666;28;20252;-79
2021/01/07 10:35:59;;;;;;;34.72;17.50;;;3.60;80.20;;;;;;4996828;28;20208;-79
2021/01/07 10:38:26;;;;;;;32.38;17.80;;;3.50;80.20;;;;;;4998089;28;20304;-79
2021/01/07 10:40:54;;;;;;;28.33;17.23;;;3.70;80.30;;;;;;4997358;28;20205;-78
2021/01/07 10:43:21;;;;;;;30.10;17.60;;;3.80;79.20;;;;;;4998611;28;20209;-79
2021/01/07 10:45:52;;;;;;;27.48;16.23;;;3.90;78.40;;;;;;4997754;28;20692;-78
2021/01/07 10:48:21;;;;;;;30.13;16.52;;;4.00;77.70;;;;;;4998647;28;20235;-78
2021/01/07 10:50:49;;;;;;;28.90;18.30;;;4.00;76.90;;;;;;4998107;28;20204;-79
2021/01/07 10:54:03;;;;;;;29.42;17.90;;;4.00;76.40;;;;;;4997295;28;20247;-81
2021/01/07 10:56:55;;;;;;;27.75;15.32;;;4.10;77.30;;;;;;4956712;28;20355;-79
2021/01/07 10:59:29;;;;;;;36.80;16.85;;;4.20;76.50;;;;;;4989632;28;20193;-76
2021/01/07 11:02:18;;;;;;;30.60;16.42;;;4.20;74.90;;;;;;5013725;28;20242;-76
2021/01/07 11:05:09;;;;;;;27.80;16.17;;;4.10;74.90;;;;;;5008006;28;20229;-78
2021/01/07 11:07:44;;;;;;;33.03;18.23;;;4.20;74.80;;;;;;5010428;28;20229;-78
2021/01/07 11:10:12;;;;;;;29.52;16.58;;;4.20;74.00;;;;;;4996995;28;20223;-78
2021/01/07 11:12:45;;;;;;;24.42;14.88;;;4.30;72.40;;;;;;5012207;28;20224;-79
2021/01/07 11:15:13;;;;;;;32.85;15.75;;;4.30;72.40;;;;;;5006882;28;20214;-83
2021/01/07 11:17:46;;;;;;;30.30;15.93;;;4.40;72.50;;;;;;5010952;28;20265;-78
2021/01/07 11:20:14;;;;;;;31.52;17.58;;;4.60;72.60;;;;;;5013454;28;20221;-83
2021/01/07 11:22:41;;;;;;;27.77;16.30;;;4.70;70.90;;;;;;5011571;28;20217;-78
2021/01/07 11:25:08;;;;;;;26.10;14.98;;;4.70;70.60;;;;;;5010998;28;20224;-79
2021/01/07 11:27:35;;;;;;;28.02;15.55;;;4.70;69.10;;;;;;5014682;28;20350;-82
2021/01/07 11:30:06;;;;;;;26.40;14.35;;;4.80;68.50;;;;;;5019272;28;20204;-78
2021/01/07 11:32:36;;;;;;;23.98;13.88;;;4.80;68.40;;;;;;5020829;28;20217;-77
2021/01/07 11:35:06;;;;;;;26.27;15.80;;;4.80;67.60;;;;;;5020888;28;20192;-80
2021/01/07 11:37:44;;;;;;;26.88;15.88;;;4.80;67.70;;;;;;5020061;28;20288;-78
2021/01/07 11:40:18;;;;;;;23.27;13.60;;;4.80;67.60;;;;;;5021630;28;20207;-77
2021/01/07 11:43:32;;;;;;;24.08;13.80;;;4.60;67.30;;;;;;5019217;28;20212;-77
2021/01/07 11:46:01;;;;;;;23.67;14.45;;;4.40;66.80;;;;;;5003721;28;20234;-80
2021/01/07 11:48:30;;;;;;;26.67;14.45;;;4.30;68.10;;;;;;4998941;28;20228;-76
2021/01/07 12:17:43;;;;;;;29.45;15.38;;;4.10;68.60;;;;;;4897830;29;20232;-82
2021/01/07 12:20:11;;;;;;;22.42;13.73;;;4.40;68.20;;;;;;4871945;29;20202;-77
2021/01/07 12:22:39;;;;;;;28.25;13.50;;;4.40;66.90;;;;;;4874751;29;20210;-79
2021/01/07 12:25:07;;;;;;;26.92;14.32;;;4.50;66.10;;;;;;4877763;29;20223;-77
2021/01/07 12:27:35;;;;;;;23.50;13.10;;;4.50;66.20;;;;;;4873641;29;20253;-81
2021/01/07 12:30:04;;;;;;;23.27;13.60;;;4.60;66.80;;;;;;4867339;29;20225;-80
2021/01/07 12:32:33;;;;;;;29.23;13.85;;;4.70;65.70;;;;;;4916128;29;20230;-79
2021/01/07 12:35:44;;;;;;;27.17;13.88;;;4.70;64.10;;;;;;4923694;29;20219;-78
2021/01/07 12:42:27;;;;;;;24.98;12.90;;;4.40;65.50;;;;;;4871074;29;20284;-79
2021/01/07 13:05:38;;;;;;;24.42;12.35;;;4.40;64.90;;;;;;4702215;30;20222;-76
2021/01/07 13:08:07;;;;;;;33.55;14.82;;;4.40;65.50;;;;;;4712006;30;20238;-77
2021/01/07 13:10:36;;;;;;;29.58;14.30;;;4.50;66.00;;;;;;4719992;30;20445;-79
2021/01/07 13:13:44;;;;;;;25.92;14.68;;;4.50;65.50;;;;;;4742564;30;20238;-77
2021/01/07 13:21:50;;;;;;;26.20;14.00;;;4.40;65.40;;;;;;5782180;23;20272;-76
2021/01/07 13:24:17;;;;;;;28.90;15.23;;;4.40;65.60;;;;;;5000652;28;20629;-75
2021/01/07 13:26:43;;;;;;;24.55;13.48;;;4.40;65.70;;;;;;4998840;28;20214;-76
2021/01/07 13:29:11;;;;;;;23.48;13.55;;;4.40;66.20;;;;;;4990793;28;20220;-75
2021/01/07 13:31:37;;;;;;;26.25;14.80;;;4.60;65.90;;;;;;4982613;28;20314;-75
2021/01/07 13:34:04;;;;;;;23.35;13.73;;;4.60;64.90;;;;;;4985132;28;20280;-76
2021/01/07 14:37:58;;;;;;;26.95;12.75;;;4.20;66.90;;;;;;4978423;28;20228;-79
2021/01/07 14:40:27;;;;;;;30.27;15.80;;;4.20;67.50;;;;;;4980047;28;20297;-77
2021/01/07 14:42:59;;;;;;;28.52;15.00;;;4.20;67.80;;;;;;4988494;28;20244;-80
2021/01/07 14:45:29;;;;;;;26.95;15.05;;;4.10;67.90;;;;;;4993185;28;20241;-80